Arden, North Carolina
Current Conditions -  °F | °C
As of 1:54 PM on Wednesday 26 Nov 2014 (Local Time) from KAVL Reporting Station
Few Clouds Few Clouds  
Wind Chill: 45°   Ceiling: Unl
Heat Index: 48°   Visibility: 10mi
Dew Point: 34°   Wind: 7mph
Humidity: 58%   Direction: 340°NNW
Pressure: 29.97"   Gusts: NA
Location:  35.47°N, 82.52°W
Report Text: KAVL 261854Z 34006KT 10SM FEW055 09/01 A2997 RMK AO2 SLP145 T00890011
Loading
Personal Weather Stations






























Interactive Weather Map New forecast layout! Learn more

10-Day Weather Forecast

Advertisements
Track Severe Weather on mobile